Time;durP1;ratioP1;P1;durP2;ratioP2;P2;SDS_P1;SDS_P2;PMS_P1;PMS_P2;Temp;Humidity;BMP_temperature;BMP_pressure;BME280_temperature;BME280_humidity;BME280_pressure;Samples;Min_cycle;Max_cycle;Signal;HPM_P1;HPM_P2
2023/03/31 00:01:18;;;;;;;4.72;2.42;;;;;;;;;;5044833;28;21090;-71
2023/03/31 00:03:43;;;;;;;4.15;2.47;;;;;;;;;;5011254;28;20457;-65
2023/03/31 00:06:10;;;;;;;3.45;2.40;;;;;;;;;;5022498;28;20083;-69
2023/03/31 00:08:35;;;;;;;3.78;2.38;;;;;;;;;;5025124;28;20033;-71
2023/03/31 00:11:03;;;;;;;4.30;2.53;;;;;;;;;;5044304;28;20037;-68
2023/03/31 00:13:29;;;;;;;3.53;2.20;;;;;;;;;;5045239;28;20104;-65
2023/03/31 00:16:01;;;;;;;3.47;2.17;;;;;;;;;;5044173;28;20033;-67
2023/03/31 00:18:26;;;;;;;4.40;2.53;;;;;;;;;;5045962;28;20029;-70
2023/03/31 00:20:52;;;;;;;4.43;2.63;;;;;;;;;;5043051;28;20035;-62
2023/03/31 00:23:26;;;;;;;4.20;2.30;;;;;;;;;;5038283;28;20384;-65
2023/03/31 00:25:51;;;;;;;3.65;2.30;;;;;;;;;;5039784;28;20060;-67
2023/03/31 00:28:16;;;;;;;4.30;2.40;;;;;;;;;;5045007;28;20045;-69
2023/03/31 00:30:42;;;;;;;3.57;2.30;;;;;;;;;;5026653;28;20033;-69
2023/03/31 00:33:08;;;;;;;4.33;2.67;;;;;;;;;;5044444;28;20810;-70
2023/03/31 00:35:34;;;;;;;3.95;2.40;;;;;;;;;;5044581;28;20057;-70
2023/03/31 00:37:59;;;;;;;3.67;2.42;;;;;;;;;;5046115;28;20068;-69
2023/03/31 00:40:24;;;;;;;3.78;2.65;;;;;;;;;;5036955;28;20025;-68
2023/03/31 00:42:49;;;;;;;3.70;2.40;;;;;;;;;;5043625;28;20032;-70
2023/03/31 00:45:18;;;;;;;3.90;2.57;;;;;;;;;;5044773;28;20404;-71
2023/03/31 00:47:47;;;;;;;3.35;2.15;;;;;;;;;;5044092;28;20154;-73
2023/03/31 00:50:24;;;;;;;3.85;2.60;;;;;;;;;;5019525;28;20127;-69
2023/03/31 00:53:05;;;;;;;4.47;2.40;;;;;;;;;;5010304;28;20129;-66
2023/03/31 00:55:35;;;;;;;4.28;2.55;;;;;;;;;;5038231;28;20091;-63
2023/03/31 00:58:00;;;;;;;3.35;2.40;;;;;;;;;;5039668;28;20494;-69
2023/03/31 01:00:26;;;;;;;3.90;2.50;;;;;;;;;;5024206;28;20124;-65
2023/03/31 01:02:58;;;;;;;3.67;2.30;;;;;;;;;;5021042;28;20471;-69
2023/03/31 01:05:31;;;;;;;3.40;2.33;;;;;;;;;;5000909;28;20316;-71
2023/03/31 01:07:56;;;;;;;3.92;2.70;;;;;;;;;;5012851;28;20044;-67
2023/03/31 01:10:22;;;;;;;3.50;2.23;;;;;;;;;;5023711;28;20033;-68
2023/03/31 01:12:51;;;;;;;3.53;2.57;;;;;;;;;;5005874;28;20283;-69
2023/03/31 01:15:16;;;;;;;3.43;2.50;;;;;;;;;;5003990;28;20467;-69
2023/03/31 01:17:43;;;;;;;4.30;2.50;;;;;;;;;;5023041;28;20362;-67
2023/03/31 01:20:14;;;;;;;4.07;2.75;;;;;;;;;;5007869;28;20057;-62
2023/03/31 01:22:40;;;;;;;4.95;2.65;;;;;;;;;;5011496;28;20064;-70
2023/03/31 01:25:05;;;;;;;4.10;2.60;;;;;;;;;;5023401;28;20513;-69
2023/03/31 01:27:32;;;;;;;3.92;2.58;;;;;;;;;;5024035;28;20284;-68
2023/03/31 01:30:33;;;;;;;4.35;2.72;;;;;;;;;;5022285;28;20047;-72
2023/03/31 01:33:17;;;;;;;3.60;2.45;;;;;;;;;;4915313;29;20040;-71
2023/03/31 01:35:45;;;;;;;3.83;2.40;;;;;;;;;;5011850;28;20553;-69
2023/03/31 01:38:40;;;;;;;3.95;2.25;;;;;;;;;;5023130;28;20352;-68
2023/03/31 01:41:25;;;;;;;3.67;2.28;;;;;;;;;;4984596;28;20439;-70
2023/03/31 01:44:08;;;;;;;4.45;2.45;;;;;;;;;;5012043;28;20041;-70
2023/03/31 01:46:40;;;;;;;4.03;2.70;;;;;;;;;;5023796;28;20041;-67
2023/03/31 01:49:14;;;;;;;4.55;2.50;;;;;;;;;;4988752;28;20052;-70
2023/03/31 01:51:42;;;;;;;4.78;2.88;;;;;;;;;;5023257;28;20103;-66
2023/03/31 01:54:14;;;;;;;4.82;2.63;;;;;;;;;;5005475;28;20042;-69
2023/03/31 01:56:39;;;;;;;4.10;2.50;;;;;;;;;;5010911;28;20033;-69
2023/03/31 01:59:07;;;;;;;4.55;3.25;;;;;;;;;;5036893;28;20060;-69
2023/03/31 02:01:37;;;;;;;4.35;2.78;;;;;;;;;;5025323;28;20075;-68
2023/03/31 02:04:22;;;;;;;4.22;2.40;;;;;;;;;;5025267;28;20068;-69
2023/03/31 02:06:52;;;;;;;3.38;2.30;;;;;;;;;;5008710;28;20088;-70
2023/03/31 02:09:17;;;;;;;;;;;;;;;;;;5007281;28;20028;-68
2023/03/31 02:11:42;;;;;;;4.33;3.03;;;;;;;;;;5047069;28;19921;-65
2023/03/31 02:14:09;;;;;;;3.30;2.40;;;;;;;;;;5015892;28;20085;-68
2023/03/31 02:16:34;;;;;;;4.80;2.50;;;;;;;;;;5032257;28;20282;-68
2023/03/31 02:19:04;;;;;;;3.90;2.63;;;;;;;;;;5035329;28;20044;-68
2023/03/31 02:21:30;;;;;;;4.15;2.65;;;;;;;;;;5036524;28;20267;-70
2023/03/31 02:23:55;;;;;;;3.80;2.70;;;;;;;;;;5037282;28;20033;-71
2023/03/31 02:26:24;;;;;;;3.40;2.57;;;;;;;;;;5029247;28;20052;-70
2023/03/31 02:28:49;;;;;;;3.70;2.53;;;;;;;;;;5026507;28;20290;-70
2023/03/31 02:31:33;;;;;;;3.83;2.60;;;;;;;;;;5046908;28;20485;-67
2023/03/31 02:33:58;;;;;;;4.22;2.65;;;;;;;;;;5035880;28;20366;-70
2023/03/31 02:36:24;;;;;;;3.90;2.60;;;;;;;;;;5039586;28;20121;-66
2023/03/31 02:38:51;;;;;;;3.42;2.50;;;;;;;;;;5046936;28;20300;-69
2023/03/31 02:41:16;;;;;;;4.43;2.80;;;;;;;;;;5028995;28;20116;-64
2023/03/31 02:43:41;;;;;;;4.77;2.77;;;;;;;;;;5027967;28;20116;-70
2023/03/31 02:46:07;;;;;;;3.78;2.55;;;;;;;;;;5036891;28;20295;-68
2023/03/31 02:48:36;;;;;;;4.03;2.92;;;;;;;;;;5046489;28;20120;-71
2023/03/31 02:51:11;;;;;;;4.13;2.80;;;;;;;;;;5033492;28;20037;-67
2023/03/31 02:53:55;;;;;;;4.15;2.40;;;;;;;;;;5046085;28;20053;-69
2023/03/31 02:56:29;;;;;;;4.25;2.65;;;;;;;;;;5046592;28;20462;-66
2023/03/31 02:58:56;;;;;;;3.13;2.30;;;;;;;;;;5046687;28;20048;-70
2023/03/31 03:01:27;;;;;;;4.00;2.70;;;;;;;;;;5053214;28;20037;-66
2023/03/31 03:03:58;;;;;;;3.78;2.75;;;;;;;;;;5027959;28;20033;-71
2023/03/31 03:06:42;;;;;;;3.88;2.88;;;;;;;;;;5036868;28;20143;-69
2023/03/31 03:09:28;;;;;;;3.80;2.35;;;;;;;;;;5041142;28;20429;-70
2023/03/31 03:12:05;;;;;;;3.75;2.50;;;;;;;;;;5035458;28;20539;-69
2023/03/31 03:14:31;;;;;;;3.35;2.55;;;;;;;;;;5036808;28;20063;-68
2023/03/31 03:17:05;;;;;;;3.73;2.50;;;;;;;;;;5043871;28;20151;-65
2023/03/31 03:19:31;;;;;;;4.32;2.90;;;;;;;;;;5036577;28;20075;-65
2023/03/31 03:21:56;;;;;;;3.70;2.60;;;;;;;;;;5034297;28;20505;-65
2023/03/31 03:24:21;;;;;;;4.43;2.50;;;;;;;;;;5023965;28;20271;-65
2023/03/31 03:26:46;;;;;;;3.78;2.67;;;;;;;;;;5040350;28;20108;-64
2023/03/31 03:29:13;;;;;;;3.80;2.72;;;;;;;;;;5030206;28;20025;-65
2023/03/31 03:31:38;;;;;;;3.00;2.22;;;;;;;;;;5038332;28;20488;-65
2023/03/31 03:34:04;;;;;;;3.97;2.67;;;;;;;;;;5038632;28;20125;-66
2023/03/31 03:36:29;;;;;;;3.53;2.70;;;;;;;;;;5041825;28;20043;-65
2023/03/31 03:38:54;;;;;;;5.13;2.90;;;;;;;;;;5036512;28;20322;-67
2023/03/31 03:41:19;;;;;;;3.58;2.60;;;;;;;;;;5031569;28;20819;-66
2023/03/31 03:43:45;;;;;;;4.07;2.40;;;;;;;;;;5033894;28;20037;-65
2023/03/31 03:46:10;;;;;;;3.95;2.72;;;;;;;;;;5035486;28;20385;-65
2023/03/31 03:48:35;;;;;;;3.60;2.30;;;;;;;;;;5035038;28;20136;-65
2023/03/31 03:51:00;;;;;;;3.50;2.33;;;;;;;;;;5032245;28;20497;-66
2023/03/31 03:53:25;;;;;;;3.95;2.33;;;;;;;;;;5039834;28;20793;-67
2023/03/31 03:55:51;;;;;;;3.60;2.50;;;;;;;;;;5037906;28;20048;-66
2023/03/31 03:58:17;;;;;;;3.20;2.40;;;;;;;;;;5024578;28;20318;-67
2023/03/31 04:00:44;;;;;;;3.65;2.40;;;;;;;;;;5034218;28;20284;-66
2023/03/31 04:03:09;;;;;;;3.15;2.45;;;;;;;;;;5028603;28;20041;-67
2023/03/31 04:05:34;;;;;;;3.37;2.13;;;;;;;;;;5030330;28;20427;-68
2023/03/31 04:08:00;;;;;;;3.97;2.33;;;;;;;;;;5032655;28;20447;-67
2023/03/31 04:10:25;;;;;;;4.13;2.50;;;;;;;;;;5032600;28;20279;-68
2023/03/31 04:12:50;;;;;;;4.30;2.60;;;;;;;;;;5035503;28;20068;-68
2023/03/31 04:15:16;;;;;;;3.67;2.38;;;;;;;;;;5033700;28;20114;-67
2023/03/31 04:17:49;;;;;;;3.47;2.55;;;;;;;;;;5030721;28;20037;-65
2023/03/31 04:20:14;;;;;;;3.88;2.45;;;;;;;;;;5021946;28;20035;-66
2023/03/31 04:22:40;;;;;;;5.82;2.50;;;;;;;;;;5012712;28;20460;-66
2023/03/31 04:25:13;;;;;;;2.97;2.23;;;;;;;;;;5030158;28;20049;-67
2023/03/31 04:27:45;;;;;;;3.00;2.20;;;;;;;;;;5031098;28;20339;-68
2023/03/31 04:30:12;;;;;;;4.50;2.45;;;;;;;;;;5023409;28;21235;-67
2023/03/31 04:32:37;;;;;;;4.65;2.17;;;;;;;;;;5013375;28;20041;-66
2023/03/31 04:35:03;;;;;;;4.22;2.13;;;;;;;;;;5030277;28;20489;-66
2023/03/31 04:37:33;;;;;;;3.25;2.20;;;;;;;;;;5032710;28;20036;-67
2023/03/31 04:40:08;;;;;;;2.88;2.15;;;;;;;;;;5032021;28;20029;-66
2023/03/31 04:42:33;;;;;;;4.03;2.13;;;;;;;;;;5030957;28;20025;-66
2023/03/31 04:44:58;;;;;;;3.73;2.17;;;;;;;;;;5028263;28;20056;-68
2023/03/31 04:47:23;;;;;;;3.27;2.00;;;;;;;;;;5031884;28;20280;-67
2023/03/31 04:49:49;;;;;;;4.10;2.33;;;;;;;;;;5031684;28;20041;-68
2023/03/31 04:52:14;;;;;;;2.78;1.70;;;;;;;;;;5028719;28;20861;-67
2023/03/31 04:54:39;;;;;;;4.93;2.10;;;;;;;;;;5031083;28;20182;-66
2023/03/31 04:57:05;;;;;;;4.03;2.47;;;;;;;;;;5031542;28;20061;-66
2023/03/31 04:59:30;;;;;;;3.13;2.10;;;;;;;;;;5032333;28;20857;-66
2023/03/31 05:01:55;;;;;;;3.13;2.20;;;;;;;;;;5030620;28;20041;-68
2023/03/31 05:04:21;;;;;;;3.30;2.17;;;;;;;;;;5030515;28;20030;-67
2023/03/31 05:06:46;;;;;;;3.43;2.30;;;;;;;;;;5028488;28;20489;-67
2023/03/31 05:09:11;;;;;;;4.07;2.00;;;;;;;;;;5026074;28;20283;-66
2023/03/31 05:11:37;;;;;;;2.90;1.88;;;;;;;;;;5031137;28;20386;-66
2023/03/31 05:14:02;;;;;;;3.60;2.20;;;;;;;;;;5008526;28;20061;-67
2023/03/31 05:16:27;;;;;;;2.95;2.10;;;;;;;;;;5030392;28;20128;-66
2023/03/31 05:18:53;;;;;;;3.33;2.23;;;;;;;;;;5033640;28;20116;-66
2023/03/31 05:21:18;;;;;;;4.25;2.55;;;;;;;;;;5032528;28;20068;-66
2023/03/31 05:23:44;;;;;;;3.72;2.03;;;;;;;;;;5027752;28;20128;-67
2023/03/31 05:26:10;;;;;;;3.40;1.90;;;;;;;;;;5027354;28;20047;-65
2023/03/31 05:28:35;;;;;;;3.53;2.00;;;;;;;;;;5025159;28;20407;-66
2023/03/31 05:31:00;;;;;;;2.85;1.80;;;;;;;;;;5032111;28;20324;-65
2023/03/31 05:33:26;;;;;;;3.20;1.90;;;;;;;;;;5028634;28;20037;-67
2023/03/31 05:35:51;;;;;;;2.83;2.05;;;;;;;;;;5003097;28;20041;-65
2023/03/31 05:38:18;;;;;;;3.22;2.35;;;;;;;;;;5031126;28;20036;-65
2023/03/31 05:40:43;;;;;;;3.60;2.20;;;;;;;;;;5032909;28;20540;-66
2023/03/31 05:43:08;;;;;;;3.60;2.20;;;;;;;;;;5029240;28;20295;-66
2023/03/31 05:45:33;;;;;;;4.50;2.07;;;;;;;;;;5029765;28;20051;-66
2023/03/31 05:47:59;;;;;;;2.77;1.80;;;;;;;;;;5033818;28;20371;-66
2023/03/31 05:50:24;;;;;;;3.45;2.13;;;;;;;;;;5032334;28;20053;-66
2023/03/31 05:52:49;;;;;;;3.25;2.25;;;;;;;;;;5025488;28;20083;-66
2023/03/31 05:55:15;;;;;;;3.20;2.13;;;;;;;;;;5040061;28;20565;-65
2023/03/31 05:57:40;;;;;;;3.75;1.92;;;;;;;;;;5025205;28;20481;-67
2023/03/31 06:00:09;;;;;;;2.53;1.80;;;;;;;;;;5007356;28;20152;-66
2023/03/31 06:02:34;;;;;;;2.75;1.90;;;;;;;;;;5026488;28;20291;-66
2023/03/31 06:04:59;;;;;;;4.97;2.10;;;;;;;;;;5032503;28;20070;-66
2023/03/31 06:07:25;;;;;;;4.13;1.87;;;;;;;;;;5037150;28;20292;-66
2023/03/31 06:09:50;;;;;;;2.22;1.67;;;;;;;;;;5036384;28;20775;-66
2023/03/31 06:12:15;;;;;;;3.25;2.00;;;;;;;;;;5017017;28;20073;-66
2023/03/31 06:14:41;;;;;;;3.33;2.07;;;;;;;;;;5025098;28;20037;-67
2023/03/31 06:17:06;;;;;;;4.13;2.35;;;;;;;;;;5039480;28;20049;-65
2023/03/31 06:19:31;;;;;;;3.20;1.80;;;;;;;;;;5038612;28;20078;-65
2023/03/31 06:21:56;;;;;;;2.90;2.00;;;;;;;;;;5035115;28;20120;-65
2023/03/31 06:24:22;;;;;;;3.60;2.00;;;;;;;;;;5026375;28;20818;-66
2023/03/31 06:26:47;;;;;;;3.17;1.83;;;;;;;;;;5033759;28;20509;-67
2023/03/31 06:29:12;;;;;;;3.30;1.90;;;;;;;;;;5027672;28;20029;-67
2023/03/31 06:31:37;;;;;;;3.33;1.80;;;;;;;;;;5035588;28;20272;-67
2023/03/31 06:34:02;;;;;;;3.13;1.92;;;;;;;;;;5029844;28;20036;-65
2023/03/31 06:36:28;;;;;;;3.00;1.80;;;;;;;;;;5043231;28;20063;-67
2023/03/31 06:38:53;;;;;;;3.47;1.93;;;;;;;;;;5030922;28;20041;-66
2023/03/31 06:41:19;;;;;;;2.50;1.77;;;;;;;;;;5023839;28;20041;-67
2023/03/31 06:43:45;;;;;;;2.20;1.65;;;;;;;;;;5032995;28;20040;-66
2023/03/31 06:46:10;;;;;;;3.67;2.20;;;;;;;;;;5031650;28;20426;-66
2023/03/31 06:48:36;;;;;;;3.58;2.08;;;;;;;;;;5031993;28;20044;-66
2023/03/31 06:51:01;;;;;;;2.92;2.05;;;;;;;;;;5028904;28;20053;-66
2023/03/31 06:53:27;;;;;;;2.63;1.42;;;;;;;;;;5011223;28;20694;-67
2023/03/31 06:55:52;;;;;;;3.45;1.90;;;;;;;;;;5031767;28;20122;-66
2023/03/31 06:58:17;;;;;;;2.58;1.67;;;;;;;;;;5030141;28;20599;-66
2023/03/31 07:00:44;;;;;;;4.38;2.05;;;;;;;;;;5029588;28;20086;-65
2023/03/31 07:03:10;;;;;;;6.65;2.05;;;;;;;;;;5026615;28;20468;-65
2023/03/31 07:05:35;;;;;;;3.33;1.87;;;;;;;;;;5025530;28;20056;-66
2023/03/31 07:08:00;;;;;;;2.90;1.77;;;;;;;;;;5029812;28;20712;-65
2023/03/31 07:10:26;;;;;;;3.17;1.70;;;;;;;;;;5031621;28;20355;-68
2023/03/31 07:12:52;;;;;;;3.17;1.85;;;;;;;;;;5029014;28;20025;-65
2023/03/31 07:15:17;;;;;;;2.90;1.90;;;;;;;;;;5021627;28;20024;-64
2023/03/31 07:17:42;;;;;;;3.30;2.08;;;;;;;;;;5034381;28;20045;-66
2023/03/31 07:20:11;;;;;;;2.83;1.83;;;;;;;;;;5033417;28;20033;-66
2023/03/31 07:22:37;;;;;;;2.88;1.63;;;;;;;;;;5033781;28;20429;-65
2023/03/31 07:25:02;;;;;;;4.28;2.10;;;;;;;;;;5030978;28;20673;-65
2023/03/31 07:27:27;;;;;;;3.28;1.67;;;;;;;;;;5031012;28;20700;-67
2023/03/31 07:29:52;;;;;;;3.30;1.93;;;;;;;;;;5031010;28;20464;-67
2023/03/31 07:32:18;;;;;;;3.60;1.50;;;;;;;;;;5031816;28;20410;-66
2023/03/31 07:34:43;;;;;;;2.60;1.70;;;;;;;;;;5030906;28;20302;-66
2023/03/31 07:37:08;;;;;;;2.90;1.73;;;;;;;;;;5027566;28;20048;-67
2023/03/31 07:39:35;;;;;;;2.60;1.70;;;;;;;;;;5029698;28;20055;-65
2023/03/31 07:42:00;;;;;;;2.42;1.70;;;;;;;;;;5044148;28;20358;-65
2023/03/31 07:44:25;;;;;;;2.83;1.63;;;;;;;;;;5029493;28;20029;-66
2023/03/31 07:46:51;;;;;;;2.72;1.63;;;;;;;;;;5029648;28;20382;-65
2023/03/31 07:49:16;;;;;;;3.00;1.50;;;;;;;;;;5031647;28;20044;-65
2023/03/31 07:51:41;;;;;;;3.03;1.90;;;;;;;;;;5028485;28;20116;-65
2023/03/31 07:54:06;;;;;;;2.30;1.67;;;;;;;;;;5026722;28;20140;-66
2023/03/31 07:56:32;;;;;;;3.17;2.03;;;;;;;;;;5034135;28;20462;-66
2023/03/31 07:58:57;;;;;;;2.90;1.67;;;;;;;;;;5034163;28;20123;-65
2023/03/31 08:01:24;;;;;;;3.40;1.80;;;;;;;;;;5029444;28;20017;-67
2023/03/31 08:03:51;;;;;;;2.63;1.60;;;;;;;;;;5025332;28;20383;-65
2023/03/31 08:06:20;;;;;;;2.90;1.77;;;;;;;;;;5031491;28;20398;-65
2023/03/31 08:08:45;;;;;;;2.60;1.60;;;;;;;;;;5031330;28;20048;-66
2023/03/31 08:11:10;;;;;;;3.03;1.60;;;;;;;;;;5032886;28;20041;-65
2023/03/31 08:13:35;;;;;;;2.93;1.63;;;;;;;;;;5034372;28;20287;-67
2023/03/31 08:16:01;;;;;;;2.33;1.60;;;;;;;;;;5032662;28;20045;-67
2023/03/31 08:18:26;;;;;;;2.58;1.80;;;;;;;;;;5014309;28;20066;-65
2023/03/31 08:20:51;;;;;;;2.50;1.60;;;;;;;;;;5031345;28;20037;-64
2023/03/31 08:23:17;;;;;;;3.20;1.70;;;;;;;;;;5027205;28;20282;-66
2023/03/31 08:25:42;;;;;;;2.80;1.50;;;;;;;;;;5016613;28;20053;-66
2023/03/31 08:28:09;;;;;;;3.07;2.00;;;;;;;;;;5031436;28;20319;-67
2023/03/31 08:30:36;;;;;;;2.50;1.50;;;;;;;;;;5029524;28;20364;-67
2023/03/31 08:33:01;;;;;;;2.40;1.60;;;;;;;;;;5033155;28;20140;-68
2023/03/31 08:35:27;;;;;;;2.35;1.48;;;;;;;;;;5029001;28;20033;-68
2023/03/31 08:37:52;;;;;;;2.37;1.50;;;;;;;;;;5029223;28;20041;-68
2023/03/31 08:40:22;;;;;;;3.43;2.00;;;;;;;;;;5031985;28;20288;-67
2023/03/31 08:42:59;;;;;;;3.83;1.95;;;;;;;;;;5004699;28;20033;-67
2023/03/31 08:45:34;;;;;;;3.30;1.70;;;;;;;;;;5001680;28;20072;-66
2023/03/31 08:48:05;;;;;;;2.42;1.67;;;;;;;;;;5016820;28;20037;-68
2023/03/31 08:50:31;;;;;;;2.97;1.65;;;;;;;;;;5035694;28;20068;-67
2023/03/31 08:52:56;;;;;;;3.40;1.77;;;;;;;;;;5033160;28;20061;-65
2023/03/31 08:55:24;;;;;;;2.90;1.60;;;;;;;;;;5030834;28;20065;-67
2023/03/31 08:57:56;;;;;;;2.63;1.60;;;;;;;;;;5029462;28;20040;-67
2023/03/31 09:00:21;;;;;;;2.35;1.50;;;;;;;;;;5030216;28;20041;-66
2023/03/31 09:02:52;;;;;;;2.67;1.83;;;;;;;;;;5028606;28;20485;-66
2023/03/31 09:05:21;;;;;;;2.28;1.60;;;;;;;;;;5028891;28;20091;-68
2023/03/31 09:08:06;;;;;;;2.50;1.60;;;;;;;;;;5012133;28;20361;-66
2023/03/31 09:10:31;;;;;;;2.40;1.35;;;;;;;;;;5023843;28;20105;-66
2023/03/31 09:12:59;;;;;;;3.00;1.47;;;;;;;;;;5028074;28;20045;-65
2023/03/31 09:15:28;;;;;;;3.00;1.58;;;;;;;;;;5027892;28;20056;-66
2023/03/31 09:17:54;;;;;;;2.40;1.70;;;;;;;;;;4992817;28;20497;-66
2023/03/31 09:20:30;;;;;;;3.10;1.70;;;;;;;;;;5024907;28;20098;-66
2023/03/31 09:23:14;;;;;;;2.45;1.30;;;;;;;;;;5033205;28;20049;-66
2023/03/31 09:25:40;;;;;;;3.28;1.70;;;;;;;;;;5027721;28;20056;-66
2023/03/31 09:28:08;;;;;;;2.70;1.60;;;;;;;;;;5025766;28;20033;-66
2023/03/31 09:30:33;;;;;;;2.72;1.48;;;;;;;;;;4992778;28;20508;-65
2023/03/31 09:33:01;;;;;;;2.57;1.67;;;;;;;;;;5027815;28;20036;-65
2023/03/31 09:35:27;;;;;;;2.30;1.65;;;;;;;;;;5027990;28;20367;-65
2023/03/31 09:37:53;;;;;;;3.45;1.60;;;;;;;;;;4999490;28;20029;-66
2023/03/31 09:40:19;;;;;;;2.83;1.60;;;;;;;;;;5009695;28;20040;-66
2023/03/31 09:42:45;;;;;;;2.30;1.45;;;;;;;;;;4994710;28;20288;-65
2023/03/31 09:45:14;;;;;;;3.88;1.50;;;;;;;;;;5028151;28;20056;-65
2023/03/31 09:47:43;;;;;;;2.85;1.67;;;;;;;;;;5029414;28;20029;-65
2023/03/31 09:50:08;;;;;;;3.05;1.63;;;;;;;;;;5016855;28;20033;-65
2023/03/31 09:52:34;;;;;;;2.65;1.80;;;;;;;;;;5032664;28;20036;-66
2023/03/31 09:55:00;;;;;;;2.63;1.40;;;;;;;;;;5033473;28;20458;-66
2023/03/31 09:57:27;;;;;;;2.92;1.60;;;;;;;;;;5028376;28;20037;-66
2023/03/31 09:59:52;;;;;;;2.10;1.40;;;;;;;;;;5028804;28;20047;-66
2023/03/31 10:02:20;;;;;;;2.72;1.55;;;;;;;;;;5027506;28;20041;-65
2023/03/31 10:04:46;;;;;;;2.15;1.60;;;;;;;;;;5027233;28;20193;-66
2023/03/31 10:07:11;;;;;;;2.47;1.42;;;;;;;;;;5009601;28;20029;-64
2023/03/31 10:09:36;;;;;;;2.20;1.53;;;;;;;;;;5028334;28;20552;-64
2023/03/31 10:12:03;;;;;;;2.65;1.33;;;;;;;;;;5029081;28;20291;-65
2023/03/31 10:14:47;;;;;;;2.40;1.40;;;;;;;;;;5010058;28;20045;-66
2023/03/31 10:17:16;;;;;;;2.53;1.60;;;;;;;;;;5034924;28;20041;-66
2023/03/31 10:19:49;;;;;;;2.00;1.30;;;;;;;;;;5026398;28;20068;-65
2023/03/31 10:22:15;;;;;;;2.55;1.60;;;;;;;;;;5010272;28;20027;-66
2023/03/31 10:24:41;;;;;;;3.17;1.67;;;;;;;;;;5027652;28;20029;-65
2023/03/31 10:27:33;;;;;;;2.20;1.33;;;;;;;;;;5029102;28;20047;-65
2023/03/31 10:29:59;;;;;;;1.95;1.20;;;;;;;;;;5038456;28;20033;-66
2023/03/31 10:32:27;;;;;;;2.45;1.40;;;;;;;;;;5043010;28;20021;-65
2023/03/31 10:34:52;;;;;;;2.35;1.55;;;;;;;;;;5008798;28;20052;-66
2023/03/31 10:37:18;;;;;;;2.00;1.23;;;;;;;;;;5025118;28;20114;-65
2023/03/31 10:39:46;;;;;;;2.65;1.75;;;;;;;;;;5017380;28;20275;-66
2023/03/31 10:42:17;;;;;;;2.60;1.38;;;;;;;;;;5042331;28;20060;-66
2023/03/31 10:44:42;;;;;;;2.40;1.40;;;;;;;;;;5042757;28;20037;-65
2023/03/31 10:47:14;;;;;;;2.67;1.43;;;;;;;;;;5042813;28;20116;-65
2023/03/31 10:49:39;;;;;;;2.58;1.50;;;;;;;;;;5042797;28;20159;-67
2023/03/31 10:52:14;;;;;;;2.35;1.42;;;;;;;;;;5046794;28;20112;-67
2023/03/31 10:54:44;;;;;;;2.03;1.20;;;;;;;;;;5046631;28;20032;-66
2023/03/31 10:57:10;;;;;;;2.25;1.25;;;;;;;;;;5030347;28;20021;-66
2023/03/31 10:59:41;;;;;;;2.37;1.17;;;;;;;;;;5066051;28;20396;-66
2023/03/31 11:02:27;;;;;;;2.55;1.35;;;;;;;;;;5066700;28;20267;-66
2023/03/31 11:05:13;;;;;;;2.00;1.33;;;;;;;;;;5065853;28;20136;-65
2023/03/31 11:08:01;;;;;;;2.05;1.30;;;;;;;;;;5048887;28;20024;-66
2023/03/31 11:10:32;;;;;;;3.72;1.50;;;;;;;;;;5039820;28;20044;-65
2023/03/31 11:13:10;;;;;;;2.58;1.30;;;;;;;;;;5046217;28;20024;-66
2023/03/31 11:15:45;;;;;;;2.70;1.40;;;;;;;;;;5052525;28;20028;-65
2023/03/31 11:18:23;;;;;;;2.33;1.40;;;;;;;;;;5049411;28;20128;-65
2023/03/31 11:20:58;;;;;;;2.63;1.30;;;;;;;;;;5047830;28;20040;-65
2023/03/31 11:23:38;;;;;;;2.10;1.38;;;;;;;;;;5063554;28;20041;-66
2023/03/31 11:26:03;;;;;;;2.63;1.40;;;;;;;;;;5032005;28;20063;-65
2023/03/31 11:28:29;;;;;;;3.23;1.47;;;;;;;;;;5051844;28;20033;-67
2023/03/31 11:31:01;;;;;;;2.33;1.52;;;;;;;;;;5051928;28;20025;-65
2023/03/31 11:33:39;;;;;;;2.88;1.55;;;;;;;;;;5046692;28;20048;-65
2023/03/31 11:36:06;;;;;;;2.67;1.40;;;;;;;;;;5028224;28;20120;-65
2023/03/31 11:39:04;;;;;;;2.97;1.38;;;;;;;;;;5052536;28;20033;-66
2023/03/31 11:41:32;;;;;;;2.58;1.75;;;;;;;;;;5017984;28;20044;-64
2023/03/31 11:44:02;;;;;;;2.97;1.30;;;;;;;;;;5036047;28;20016;-67
2023/03/31 11:46:40;;;;;;;2.08;1.33;;;;;;;;;;5053970;28;20048;-65
2023/03/31 11:49:05;;;;;;;2.13;1.27;;;;;;;;;;5060591;28;20048;-68
2023/03/31 11:51:33;;;;;;;2.27;1.30;;;;;;;;;;5065606;28;20113;-66
2023/03/31 11:53:58;;;;;;;2.05;1.30;;;;;;;;;;5031085;28;20074;-66
2023/03/31 11:56:25;;;;;;;2.13;1.30;;;;;;;;;;5064856;28;20102;-65
2023/03/31 11:58:51;;;;;;;1.73;1.30;;;;;;;;;;5028134;28;20200;-65
2023/03/31 12:01:19;;;;;;;3.22;1.50;;;;;;;;;;5042120;28;20020;-66
2023/03/31 12:03:47;;;;;;;2.85;1.23;;;;;;;;;;5048251;28;20496;-65
2023/03/31 12:06:17;;;;;;;3.33;1.38;;;;;;;;;;5054069;28;20067;-65
2023/03/31 12:09:01;;;;;;;1.90;1.17;;;;;;;;;;5050355;28;20036;-67
2023/03/31 12:11:28;;;;;;;2.58;1.27;;;;;;;;;;5052939;28;20029;-65
2023/03/31 12:13:59;;;;;;;2.55;1.25;;;;;;;;;;5046459;28;20067;-65
2023/03/31 12:16:42;;;;;;;2.15;1.20;;;;;;;;;;5030044;28;20132;-65
2023/03/31 12:19:46;;;;;;;2.90;1.50;;;;;;;;;;5058829;28;20098;-65
2023/03/31 12:22:19;;;;;;;2.35;1.50;;;;;;;;;;5001729;28;20116;-65
2023/03/31 12:24:45;;;;;;;2.03;1.23;;;;;;;;;;5002029;28;20059;-64
2023/03/31 12:27:32;;;;;;;2.33;1.38;;;;;;;;;;5007271;28;20365;-65
2023/03/31 12:29:58;;;;;;;2.10;1.15;;;;;;;;;;5043609;28;20187;-65
2023/03/31 12:32:26;;;;;;;2.63;1.20;;;;;;;;;;5050283;28;20414;-65
2023/03/31 12:34:55;;;;;;;1.92;1.10;;;;;;;;;;5044452;28;20017;-65
2023/03/31 12:37:26;;;;;;;2.88;1.25;;;;;;;;;;5051633;28;20033;-65
2023/03/31 12:39:55;;;;;;;2.10;1.52;;;;;;;;;;5049103;28;20588;-65
2023/03/31 12:42:29;;;;;;;2.25;1.20;;;;;;;;;;5042400;28;20376;-64
2023/03/31 12:45:03;;;;;;;3.00;1.20;;;;;;;;;;5044435;28;20523;-65
2023/03/31 12:47:29;;;;;;;3.58;1.30;;;;;;;;;;5050697;28;20052;-68
2023/03/31 12:49:57;;;;;;;5.03;1.42;;;;;;;;;;5064238;28;20150;-63
2023/03/31 12:52:25;;;;;;;4.53;1.52;;;;;;;;;;5063491;28;20060;-66
2023/03/31 12:55:09;;;;;;;3.17;1.55;;;;;;;;;;5064490;28;20025;-66
2023/03/31 12:57:34;;;;;;;2.50;1.35;;;;;;;;;;5063403;28;20044;-66
2023/03/31 13:00:03;;;;;;;4.27;1.40;;;;;;;;;;5039277;28;20032;-68
2023/03/31 13:02:29;;;;;;;3.03;1.40;;;;;;;;;;5056858;28;20089;-67
2023/03/31 13:04:54;;;;;;;3.67;1.20;;;;;;;;;;5064242;28;20146;-64
2023/03/31 13:07:19;;;;;;;6.27;2.00;;;;;;;;;;5039596;28;20306;-65
2023/03/31 13:09:45;;;;;;;3.70;1.45;;;;;;;;;;5055835;28;20804;-67
2023/03/31 13:12:17;;;;;;;3.72;1.50;;;;;;;;;;5057949;28;20059;-66
2023/03/31 13:14:44;;;;;;;4.18;1.27;;;;;;;;;;5039245;28;20033;-65
2023/03/31 13:17:25;;;;;;;3.83;1.70;;;;;;;;;;5039797;28;20025;-68
2023/03/31 13:19:50;;;;;;;4.53;1.38;;;;;;;;;;5060090;28;20410;-68
2023/03/31 13:22:29;;;;;;;5.60;1.60;;;;;;;;;;5045171;28;20032;-68
2023/03/31 13:25:15;;;;;;;4.07;1.50;;;;;;;;;;5043533;28;20404;-68
2023/03/31 13:27:47;;;;;;;3.45;1.15;;;;;;;;;;5060400;28;20605;-67
2023/03/31 13:30:32;;;;;;;3.95;1.45;;;;;;;;;;5063927;28;20126;-65
2023/03/31 13:33:11;;;;;;;6.10;1.40;;;;;;;;;;5048822;28;20511;-68
2023/03/31 13:35:36;;;;;;;3.67;1.40;;;;;;;;;;5015795;28;20024;-68
2023/03/31 13:38:22;;;;;;;2.55;1.13;;;;;;;;;;5056761;28;20032;-66
2023/03/31 13:40:53;;;;;;;3.67;1.23;;;;;;;;;;5052939;28;20024;-66
2023/03/31 13:43:18;;;;;;;3.70;1.50;;;;;;;;;;5063045;28;20465;-65
2023/03/31 13:45:46;;;;;;;5.37;1.60;;;;;;;;;;5064276;28;20090;-68
2023/03/31 13:48:30;;;;;;;4.47;1.60;;;;;;;;;;5041483;28;20037;-69
2023/03/31 13:51:04;;;;;;;5.32;1.35;;;;;;;;;;5056341;28;20043;-72
2023/03/31 13:53:48;;;;;;;3.20;1.60;;;;;;;;;;5044892;28;20044;-71
2023/03/31 13:56:22;;;;;;;4.90;1.50;;;;;;;;;;5051073;28;20045;-70
2023/03/31 13:58:50;;;;;;;4.15;1.42;;;;;;;;;;5046579;28;20048;-71
2023/03/31 14:01:22;;;;;;;4.05;1.63;;;;;;;;;;5049481;28;20386;-71
2023/03/31 14:03:53;;;;;;;4.28;1.85;;;;;;;;;;5061082;28;20033;-68
2023/03/31 14:06:25;;;;;;;5.15;1.98;;;;;;;;;;5055016;28;20099;-71
2023/03/31 14:08:58;;;;;;;3.92;1.90;;;;;;;;;;5060557;28;20119;-71
2023/03/31 14:11:25;;;;;;;4.55;1.98;;;;;;;;;;5050609;28;20523;-71
2023/03/31 14:14:02;;;;;;;6.00;1.52;;;;;;;;;;5028540;28;20746;-69
2023/03/31 14:16:28;;;;;;;4.35;1.65;;;;;;;;;;5040639;28;20142;-71
2023/03/31 14:18:56;;;;;;;3.90;1.45;;;;;;;;;;5042835;28;20410;-67
2023/03/31 14:21:21;;;;;;;5.53;1.80;;;;;;;;;;5026154;28;20017;-69
2023/03/31 14:24:05;;;;;;;3.67;1.53;;;;;;;;;;5062662;28;20400;-72
2023/03/31 14:26:52;;;;;;;4.18;1.42;;;;;;;;;;5062414;28;20032;-67
2023/03/31 14:29:18;;;;;;;6.57;1.52;;;;;;;;;;5045204;28;20060;-73
2023/03/31 14:31:43;;;;;;;5.43;1.67;;;;;;;;;;5044696;28;20060;-72
2023/03/31 14:34:16;;;;;;;4.20;1.30;;;;;;;;;;5062730;28;20047;-74
2023/03/31 14:36:41;;;;;;;5.10;1.58;;;;;;;;;;5032829;28;20029;-73
2023/03/31 14:39:08;;;;;;;4.50;1.47;;;;;;;;;;5044873;28;20045;-72
2023/03/31 14:41:36;;;;;;;3.42;1.50;;;;;;;;;;5037388;28;20039;-70
2023/03/31 14:44:02;;;;;;;5.82;1.55;;;;;;;;;;5055826;28;20040;-69
2023/03/31 14:46:29;;;;;;;2.65;1.50;;;;;;;;;;5044451;28;20464;-70
2023/03/31 14:48:54;;;;;;;2.85;1.60;;;;;;;;;;5056796;28;20021;-71
2023/03/31 14:51:28;;;;;;;5.32;2.08;;;;;;;;;;5059999;28;20464;-71
2023/03/31 14:53:57;;;;;;;6.10;1.70;;;;;;;;;;5056253;28;20491;-72